sensor_id;sensor_type;location;lat;lon;timestamp;temperature;humidity
736;DHT22;352;48.626;9.238;2022-10-10T00:00:38;12.90;99.90
736;DHT22;352;48.626;9.238;2022-10-10T00:03:05;12.80;99.90
736;DHT22;352;48.626;9.238;2022-10-10T00:05:32;12.80;99.90
736;DHT22;352;48.626;9.238;2022-10-10T00:07:59;12.80;99.90
736;DHT22;352;48.626;9.238;2022-10-10T00:10:26;12.70;99.90
736;DHT22;352;48.626;9.238;2022-10-10T00:12:53;12.70;99.90
736;DHT22;352;48.626;9.238;2022-10-10T00:15:21;12.70;99.90
736;DHT22;352;48.626;9.238;2022-10-10T00:17:48;12.70;99.90
736;DHT22;352;48.626;9.238;2022-10-10T00:20:16;12.70;99.90
736;DHT22;352;48.626;9.238;2022-10-10T00:22:44;12.60;99.90
736;DHT22;352;48.626;9.238;2022-10-10T00:25:11;12.60;99.90
736;DHT22;352;48.626;9.238;2022-10-10T00:27:38;12.60;99.90
736;DHT22;352;48.626;9.238;2022-10-10T00:30:07;12.60;99.90
736;DHT22;352;48.626;9.238;2022-10-10T00:32:35;12.60;99.90
736;DHT22;352;48.626;9.238;2022-10-10T00:35:02;12.60;99.90
736;DHT22;352;48.626;9.238;2022-10-10T00:37:29;12.60;99.90
736;DHT22;352;48.626;9.238;2022-10-10T00:39:56;12.60;99.90
736;DHT22;352;48.626;9.238;2022-10-10T00:42:23;12.60;99.90
736;DHT22;352;48.626;9.238;2022-10-10T00:45:18;12.60;99.90
736;DHT22;352;48.626;9.238;2022-10-10T00:47:48;12.70;99.90
736;DHT22;352;48.626;9.238;2022-10-10T00:50:15;12.70;99.90
736;DHT22;352;48.626;9.238;2022-10-10T00:52:43;12.70;99.90
736;DHT22;352;48.626;9.238;2022-10-10T00:55:10;12.70;99.90
736;DHT22;352;48.626;9.238;2022-10-10T00:57:38;12.70;99.90
736;DHT22;352;48.626;9.238;2022-10-10T01:00:06;12.70;99.90
736;DHT22;352;48.626;9.238;2022-10-10T01:02:33;12.70;99.90
736;DHT22;352;48.626;9.238;2022-10-10T01:05:01;12.70;99.90
736;DHT22;352;48.626;9.238;2022-10-10T01:07:30;12.70;99.90
736;DHT22;352;48.626;9.238;2022-10-10T01:10:00;12.70;99.90
736;DHT22;352;48.626;9.238;2022-10-10T01:12:32;12.80;99.90
736;DHT22;352;48.626;9.238;2022-10-10T01:15:07;12.70;99.90
736;DHT22;352;48.626;9.238;2022-10-10T01:17:41;12.70;99.90
736;DHT22;352;48.626;9.238;2022-10-10T01:20:29;12.70;99.90
736;DHT22;352;48.626;9.238;2022-10-10T01:26:13;12.70;99.90
736;DHT22;352;48.626;9.238;2022-10-10T01:28:51;12.70;99.90
736;DHT22;352;48.626;9.238;2022-10-10T01:31:23;12.70;99.90
736;DHT22;352;48.626;9.238;2022-10-10T01:33:55;12.70;99.90
736;DHT22;352;48.626;9.238;2022-10-10T01:36:29;12.70;99.90
736;DHT22;352;48.626;9.238;2022-10-10T01:39:03;12.70;99.90
736;DHT22;352;48.626;9.238;2022-10-10T01:41:31;12.70;99.90
736;DHT22;352;48.626;9.238;2022-10-10T01:44:02;12.70;99.90
736;DHT22;352;48.626;9.238;2022-10-10T01:46:31;12.70;99.90
736;DHT22;352;48.626;9.238;2022-10-10T01:48:58;12.70;99.90
736;DHT22;352;48.626;9.238;2022-10-10T01:51:44;12.60;99.90
736;DHT22;352;48.626;9.238;2022-10-10T01:54:21;12.70;99.90
736;DHT22;352;48.626;9.238;2022-10-10T01:57:00;12.70;99.90
736;DHT22;352;48.626;9.238;2022-10-10T01:59:40;12.70;99.90
736;DHT22;352;48.626;9.238;2022-10-10T02:02:17;12.70;99.90
736;DHT22;352;48.626;9.238;2022-10-10T02:04:49;12.70;99.90
736;DHT22;352;48.626;9.238;2022-10-10T02:07:24;12.70;99.90
736;DHT22;352;48.626;9.238;2022-10-10T02:09:53;12.80;99.90
736;DHT22;352;48.626;9.238;2022-10-10T02:12:21;12.80;99.90
736;DHT22;352;48.626;9.238;2022-10-10T02:14:51;12.70;99.90
736;DHT22;352;48.626;9.238;2022-10-10T02:17:20;12.70;99.90
736;DHT22;352;48.626;9.238;2022-10-10T02:19:50;12.70;99.90
736;DHT22;352;48.626;9.238;2022-10-10T02:22:18;12.70;99.90
736;DHT22;352;48.626;9.238;2022-10-10T02:24:46;12.70;99.90
736;DHT22;352;48.626;9.238;2022-10-10T02:27:17;12.70;99.90
736;DHT22;352;48.626;9.238;2022-10-10T02:29:46;12.70;99.90
736;DHT22;352;48.626;9.238;2022-10-10T02:32:20;12.70;99.90
736;DHT22;352;48.626;9.238;2022-10-10T02:34:50;12.70;99.90
736;DHT22;352;48.626;9.238;2022-10-10T02:37:20;12.70;99.90
736;DHT22;352;48.626;9.238;2022-10-10T02:39:52;12.70;99.90
736;DHT22;352;48.626;9.238;2022-10-10T02:42:21;12.70;99.90
736;DHT22;352;48.626;9.238;2022-10-10T02:44:49;12.70;99.90
736;DHT22;352;48.626;9.238;2022-10-10T02:47:18;12.70;99.90
736;DHT22;352;48.626;9.238;2022-10-10T02:49:44;12.70;99.90
736;DHT22;352;48.626;9.238;2022-10-10T02:52:14;12.70;99.90
736;DHT22;352;48.626;9.238;2022-10-10T02:54:41;12.70;99.90
736;DHT22;352;48.626;9.238;2022-10-10T02:57:08;12.60;99.90
736;DHT22;352;48.626;9.238;2022-10-10T02:59:35;12.60;99.90
736;DHT22;352;48.626;9.238;2022-10-10T03:02:01;12.60;99.90
736;DHT22;352;48.626;9.238;2022-10-10T03:04:29;12.50;99.90
736;DHT22;352;48.626;9.238;2022-10-10T03:06:56;12.50;99.90
736;DHT22;352;48.626;9.238;2022-10-10T03:09:23;12.50;99.90
736;DHT22;352;48.626;9.238;2022-10-10T03:11:49;12.50;99.90
736;DHT22;352;48.626;9.238;2022-10-10T03:14:16;12.50;99.90
736;DHT22;352;48.626;9.238;2022-10-10T03:16:43;12.50;99.90
736;DHT22;352;48.626;9.238;2022-10-10T03:19:10;12.50;99.90
736;DHT22;352;48.626;9.238;2022-10-10T03:21:38;12.50;99.90
736;DHT22;352;48.626;9.238;2022-10-10T03:24:05;12.50;99.90
736;DHT22;352;48.626;9.238;2022-10-10T03:26:31;12.50;99.90
736;DHT22;352;48.626;9.238;2022-10-10T03:28:59;12.50;99.90
736;DHT22;352;48.626;9.238;2022-10-10T03:31:27;12.40;99.90
736;DHT22;352;48.626;9.238;2022-10-10T03:33:53;12.40;99.90
736;DHT22;352;48.626;9.238;2022-10-10T03:36:20;12.50;99.90
736;DHT22;352;48.626;9.238;2022-10-10T03:38:49;12.50;99.90
736;DHT22;352;48.626;9.238;2022-10-10T03:41:15;12.50;99.90
736;DHT22;352;48.626;9.238;2022-10-10T03:43:42;12.50;99.90
736;DHT22;352;48.626;9.238;2022-10-10T03:46:09;12.50;99.90
736;DHT22;352;48.626;9.238;2022-10-10T03:48:35;12.50;99.90
736;DHT22;352;48.626;9.238;2022-10-10T03:51:02;12.50;99.90
736;DHT22;352;48.626;9.238;2022-10-10T03:53:30;12.50;99.90
736;DHT22;352;48.626;9.238;2022-10-10T03:55:58;12.50;99.90
736;DHT22;352;48.626;9.238;2022-10-10T03:58:25;12.40;99.90
736;DHT22;352;48.626;9.238;2022-10-10T04:00:53;12.40;99.90
736;DHT22;352;48.626;9.238;2022-10-10T04:03:20;12.50;99.90
736;DHT22;352;48.626;9.238;2022-10-10T04:05:47;12.50;99.90
736;DHT22;352;48.626;9.238;2022-10-10T04:08:14;12.50;99.90
736;DHT22;352;48.626;9.238;2022-10-10T04:10:40;12.50;99.90
736;DHT22;352;48.626;9.238;2022-10-10T04:13:08;12.50;99.90
736;DHT22;352;48.626;9.238;2022-10-10T04:15:35;12.50;99.90
736;DHT22;352;48.626;9.238;2022-10-10T04:18:02;12.40;99.90
736;DHT22;352;48.626;9.238;2022-10-10T04:20:29;12.40;99.90
736;DHT22;352;48.626;9.238;2022-10-10T04:22:55;12.40;99.90
736;DHT22;352;48.626;9.238;2022-10-10T04:25:22;12.30;99.90
736;DHT22;352;48.626;9.238;2022-10-10T04:27:49;12.30;99.90
736;DHT22;352;48.626;9.238;2022-10-10T04:30:17;12.30;99.90
736;DHT22;352;48.626;9.238;2022-10-10T04:32:44;12.30;99.90
736;DHT22;352;48.626;9.238;2022-10-10T04:35:11;12.30;99.90
736;DHT22;352;48.626;9.238;2022-10-10T04:37:37;12.30;99.90
736;DHT22;352;48.626;9.238;2022-10-10T04:40:05;12.30;99.90
736;DHT22;352;48.626;9.238;2022-10-10T04:42:32;12.30;99.90
736;DHT22;352;48.626;9.238;2022-10-10T04:44:58;12.20;99.90
736;DHT22;352;48.626;9.238;2022-10-10T04:47:27;12.30;99.90
736;DHT22;352;48.626;9.238;2022-10-10T04:49:53;12.20;99.90
736;DHT22;352;48.626;9.238;2022-10-10T04:52:20;12.10;99.90
736;DHT22;352;48.626;9.238;2022-10-10T04:54:47;12.00;99.90
736;DHT22;352;48.626;9.238;2022-10-10T04:57:13;12.00;99.90
736;DHT22;352;48.626;9.238;2022-10-10T04:59:40;12.00;99.90
736;DHT22;352;48.626;9.238;2022-10-10T05:02:07;12.00;99.90
736;DHT22;352;48.626;9.238;2022-10-10T05:04:36;12.00;99.90
736;DHT22;352;48.626;9.238;2022-10-10T05:07:03;12.00;99.90
736;DHT22;352;48.626;9.238;2022-10-10T05:09:29;12.00;99.90
736;DHT22;352;48.626;9.238;2022-10-10T05:11:58;12.00;99.90
736;DHT22;352;48.626;9.238;2022-10-10T05:14:24;12.00;99.90
736;DHT22;352;48.626;9.238;2022-10-10T05:16:51;12.00;99.90
736;DHT22;352;48.626;9.238;2022-10-10T05:19:18;12.00;99.90
736;DHT22;352;48.626;9.238;2022-10-10T05:21:46;12.10;99.90
736;DHT22;352;48.626;9.238;2022-10-10T05:24:13;12.10;99.90
736;DHT22;352;48.626;9.238;2022-10-10T05:26:40;12.10;99.90
736;DHT22;352;48.626;9.238;2022-10-10T05:29:06;12.20;99.90
736;DHT22;352;48.626;9.238;2022-10-10T05:31:33;12.40;99.90
736;DHT22;352;48.626;9.238;2022-10-10T05:34:00;12.20;99.90
736;DHT22;352;48.626;9.238;2022-10-10T05:36:27;12.20;99.90
736;DHT22;352;48.626;9.238;2022-10-10T05:38:55;12.30;99.90
736;DHT22;352;48.626;9.238;2022-10-10T05:43:49;12.30;99.90
736;DHT22;352;48.626;9.238;2022-10-10T05:46:15;12.40;99.90
736;DHT22;352;48.626;9.238;2022-10-10T05:48:44;12.70;99.90
736;DHT22;352;48.626;9.238;2022-10-10T05:51:11;12.40;99.90
736;DHT22;352;48.626;9.238;2022-10-10T05:53:38;12.40;99.90
736;DHT22;352;48.626;9.238;2022-10-10T05:56:06;12.50;99.90
736;DHT22;352;48.626;9.238;2022-10-10T05:58:34;12.60;99.90
736;DHT22;352;48.626;9.238;2022-10-10T06:01:03;12.70;99.90
736;DHT22;352;48.626;9.238;2022-10-10T06:03:31;12.60;99.90
736;DHT22;352;48.626;9.238;2022-10-10T06:05:57;12.60;99.90
736;DHT22;352;48.626;9.238;2022-10-10T06:08:24;12.70;99.90
736;DHT22;352;48.626;9.238;2022-10-10T06:10:51;12.70;99.90
736;DHT22;352;48.626;9.238;2022-10-10T06:13:19;12.80;99.90
736;DHT22;352;48.626;9.238;2022-10-10T06:15:49;12.80;99.90
736;DHT22;352;48.626;9.238;2022-10-10T06:18:16;12.80;99.90
736;DHT22;352;48.626;9.238;2022-10-10T06:20:43;12.80;99.90
736;DHT22;352;48.626;9.238;2022-10-10T06:23:10;12.80;99.90
736;DHT22;352;48.626;9.238;2022-10-10T06:25:37;12.80;99.90
736;DHT22;352;48.626;9.238;2022-10-10T06:28:04;12.80;99.90
736;DHT22;352;48.626;9.238;2022-10-10T06:30:32;12.90;99.90
736;DHT22;352;48.626;9.238;2022-10-10T06:32:59;12.90;99.90
736;DHT22;352;48.626;9.238;2022-10-10T06:35:26;12.80;99.90
736;DHT22;352;48.626;9.238;2022-10-10T06:37:52;12.80;99.90
736;DHT22;352;48.626;9.238;2022-10-10T06:40:19;13.00;99.90
736;DHT22;352;48.626;9.238;2022-10-10T06:42:46;13.00;99.90
736;DHT22;352;48.626;9.238;2022-10-10T06:45:13;13.10;99.90
736;DHT22;352;48.626;9.238;2022-10-10T06:47:41;13.10;99.90
736;DHT22;352;48.626;9.238;2022-10-10T06:50:08;13.10;99.90
736;DHT22;352;48.626;9.238;2022-10-10T06:52:35;13.20;99.90
736;DHT22;352;48.626;9.238;2022-10-10T06:55:02;13.30;99.90
736;DHT22;352;48.626;9.238;2022-10-10T06:57:29;13.30;99.90
736;DHT22;352;48.626;9.238;2022-10-10T06:59:56;13.40;99.90
736;DHT22;352;48.626;9.238;2022-10-10T07:02:22;13.50;99.90
736;DHT22;352;48.626;9.238;2022-10-10T07:04:51;13.60;99.90
736;DHT22;352;48.626;9.238;2022-10-10T07:07:18;13.60;99.90
736;DHT22;352;48.626;9.238;2022-10-10T07:09:45;13.70;99.90
736;DHT22;352;48.626;9.238;2022-10-10T07:12:11;13.70;99.90
736;DHT22;352;48.626;9.238;2022-10-10T07:14:38;13.70;99.90
736;DHT22;352;48.626;9.238;2022-10-10T07:17:05;13.70;99.90
736;DHT22;352;48.626;9.238;2022-10-10T07:19:31;13.80;99.90
736;DHT22;352;48.626;9.238;2022-10-10T07:21:59;13.80;99.90
736;DHT22;352;48.626;9.238;2022-10-10T07:24:26;13.90;99.90
736;DHT22;352;48.626;9.238;2022-10-10T07:26:53;14.00;99.90
736;DHT22;352;48.626;9.238;2022-10-10T07:29:20;14.00;99.90
736;DHT22;352;48.626;9.238;2022-10-10T07:31:47;14.10;99.90
736;DHT22;352;48.626;9.238;2022-10-10T07:34:14;14.10;99.90
736;DHT22;352;48.626;9.238;2022-10-10T07:36:40;14.20;99.90
736;DHT22;352;48.626;9.238;2022-10-10T07:39:09;14.30;99.90
736;DHT22;352;48.626;9.238;2022-10-10T07:41:36;14.40;99.90
736;DHT22;352;48.626;9.238;2022-10-10T07:44:03;14.40;99.90
736;DHT22;352;48.626;9.238;2022-10-10T07:46:29;14.50;99.90
736;DHT22;352;48.626;9.238;2022-10-10T07:48:57;14.50;99.90
736;DHT22;352;48.626;9.238;2022-10-10T07:51:24;14.60;99.90
736;DHT22;352;48.626;9.238;2022-10-10T07:53:51;14.60;99.90
736;DHT22;352;48.626;9.238;2022-10-10T07:56:19;14.70;99.90
736;DHT22;352;48.626;9.238;2022-10-10T07:58:46;14.70;99.90
736;DHT22;352;48.626;9.238;2022-10-10T08:01:13;14.60;99.90
736;DHT22;352;48.626;9.238;2022-10-10T08:03:40;14.70;99.90
736;DHT22;352;48.626;9.238;2022-10-10T08:06:09;14.70;99.90
736;DHT22;352;48.626;9.238;2022-10-10T08:08:36;14.70;99.90
736;DHT22;352;48.626;9.238;2022-10-10T08:11:04;14.80;99.90
736;DHT22;352;48.626;9.238;2022-10-10T08:13:32;14.80;99.90
736;DHT22;352;48.626;9.238;2022-10-10T08:15:59;14.80;99.90
736;DHT22;352;48.626;9.238;2022-10-10T08:18:26;14.90;99.90
736;DHT22;352;48.626;9.238;2022-10-10T08:21:00;15.00;99.90
736;DHT22;352;48.626;9.238;2022-10-10T08:23:28;15.00;99.90
736;DHT22;352;48.626;9.238;2022-10-10T08:25:57;15.10;99.90
736;DHT22;352;48.626;9.238;2022-10-10T08:28:24;15.20;99.90
736;DHT22;352;48.626;9.238;2022-10-10T08:30:52;15.30;99.90
736;DHT22;352;48.626;9.238;2022-10-10T08:33:20;15.30;99.90
736;DHT22;352;48.626;9.238;2022-10-10T08:35:46;15.40;99.90
736;DHT22;352;48.626;9.238;2022-10-10T08:38:13;15.50;99.90
736;DHT22;352;48.626;9.238;2022-10-10T08:40:41;15.40;99.90
736;DHT22;352;48.626;9.238;2022-10-10T08:43:10;15.50;99.90
736;DHT22;352;48.626;9.238;2022-10-10T08:45:43;15.60;99.90
736;DHT22;352;48.626;9.238;2022-10-10T08:48:14;15.60;99.90
736;DHT22;352;48.626;9.238;2022-10-10T08:50:43;15.70;99.90
736;DHT22;352;48.626;9.238;2022-10-10T08:53:16;15.80;99.90
736;DHT22;352;48.626;9.238;2022-10-10T08:55:45;15.90;99.90
736;DHT22;352;48.626;9.238;2022-10-10T08:58:17;15.90;99.90
736;DHT22;352;48.626;9.238;2022-10-10T09:00:48;16.00;99.90
736;DHT22;352;48.626;9.238;2022-10-10T09:03:23;16.10;99.90
736;DHT22;352;48.626;9.238;2022-10-10T09:06:03;16.10;99.90
736;DHT22;352;48.626;9.238;2022-10-10T09:08:40;16.20;99.90
736;DHT22;352;48.626;9.238;2022-10-10T09:11:18;16.20;99.90
736;DHT22;352;48.626;9.238;2022-10-10T09:13:53;16.30;99.90
736;DHT22;352;48.626;9.238;2022-10-10T09:16:35;16.40;99.90
736;DHT22;352;48.626;9.238;2022-10-10T09:19:13;16.50;99.90
736;DHT22;352;48.626;9.238;2022-10-10T09:21:49;16.80;99.90
736;DHT22;352;48.626;9.238;2022-10-10T09:24:21;17.00;99.90
736;DHT22;352;48.626;9.238;2022-10-10T09:26:51;17.00;99.90
736;DHT22;352;48.626;9.238;2022-10-10T09:29:28;17.10;99.90
736;DHT22;352;48.626;9.238;2022-10-10T09:32:01;17.20;99.90
736;DHT22;352;48.626;9.238;2022-10-10T09:34:35;17.20;99.90
736;DHT22;352;48.626;9.238;2022-10-10T09:37:11;17.20;99.90
736;DHT22;352;48.626;9.238;2022-10-10T09:39:41;17.20;99.90
736;DHT22;352;48.626;9.238;2022-10-10T09:42:10;17.30;99.90
736;DHT22;352;48.626;9.238;2022-10-10T09:44:38;17.20;99.90
736;DHT22;352;48.626;9.238;2022-10-10T09:47:05;17.30;99.90
736;DHT22;352;48.626;9.238;2022-10-10T09:49:34;17.30;99.90
736;DHT22;352;48.626;9.238;2022-10-10T09:52:23;17.30;99.90
736;DHT22;352;48.626;9.238;2022-10-10T09:54:50;17.40;99.90
736;DHT22;352;48.626;9.238;2022-10-10T09:57:20;17.50;99.90
736;DHT22;352;48.626;9.238;2022-10-10T09:59:48;17.60;99.90
736;DHT22;352;48.626;9.238;2022-10-10T10:02:17;17.80;99.90
736;DHT22;352;48.626;9.238;2022-10-10T10:04:46;17.90;99.90
736;DHT22;352;48.626;9.238;2022-10-10T10:07:25;18.10;99.90
736;DHT22;352;48.626;9.238;2022-10-10T10:09:54;18.60;99.90
736;DHT22;352;48.626;9.238;2022-10-10T10:12:23;19.10;99.90
736;DHT22;352;48.626;9.238;2022-10-10T10:14:55;19.80;99.90
736;DHT22;352;48.626;9.238;2022-10-10T10:17:24;21.10;99.90
736;DHT22;352;48.626;9.238;2022-10-10T10:19:52;22.70;99.90
736;DHT22;352;48.626;9.238;2022-10-10T10:22:24;23.70;97.80
736;DHT22;352;48.626;9.238;2022-10-10T10:24:51;23.40;97.60
736;DHT22;352;48.626;9.238;2022-10-10T10:27:19;23.60;97.20
736;DHT22;352;48.626;9.238;2022-10-10T10:29:47;24.10;96.50
736;DHT22;352;48.626;9.238;2022-10-10T10:32:30;23.90;96.30
736;DHT22;352;48.626;9.238;2022-10-10T10:35:07;23.70;97.20
736;DHT22;352;48.626;9.238;2022-10-10T10:37:42;23.40;97.20
736;DHT22;352;48.626;9.238;2022-10-10T10:40:27;22.90;98.00
736;DHT22;352;48.626;9.238;2022-10-10T10:43:11;22.70;98.40
736;DHT22;352;48.626;9.238;2022-10-10T10:45:47;22.60;99.60
736;DHT22;352;48.626;9.238;2022-10-10T10:48:25;22.60;99.00
736;DHT22;352;48.626;9.238;2022-10-10T10:50:55;22.50;99.30
736;DHT22;352;48.626;9.238;2022-10-10T10:53:28;22.30;99.00
736;DHT22;352;48.626;9.238;2022-10-10T10:56:04;22.40;99.90
736;DHT22;352;48.626;9.238;2022-10-10T11:01:26;22.30;98.90
736;DHT22;352;48.626;9.238;2022-10-10T11:03:59;22.40;98.50
736;DHT22;352;48.626;9.238;2022-10-10T11:06:37;22.10;99.00
736;DHT22;352;48.626;9.238;2022-10-10T11:09:11;22.00;99.20
736;DHT22;352;48.626;9.238;2022-10-10T11:12:02;21.90;99.10
736;DHT22;352;48.626;9.238;2022-10-10T11:14:42;21.80;99.50
736;DHT22;352;48.626;9.238;2022-10-10T11:17:15;22.00;99.90
736;DHT22;352;48.626;9.238;2022-10-10T11:19:48;22.20;99.90
736;DHT22;352;48.626;9.238;2022-10-10T11:22:24;22.30;99.30
736;DHT22;352;48.626;9.238;2022-10-10T11:24:54;22.30;99.10
736;DHT22;352;48.626;9.238;2022-10-10T11:27:25;22.30;99.20
736;DHT22;352;48.626;9.238;2022-10-10T11:30:02;22.10;99.90
736;DHT22;352;48.626;9.238;2022-10-10T11:32:34;22.20;98.90
736;DHT22;352;48.626;9.238;2022-10-10T11:35:17;22.20;99.00
736;DHT22;352;48.626;9.238;2022-10-10T11:37:53;22.10;98.90
736;DHT22;352;48.626;9.238;2022-10-10T11:40:32;22.00;99.90
736;DHT22;352;48.626;9.238;2022-10-10T11:43:03;22.00;98.80
736;DHT22;352;48.626;9.238;2022-10-10T11:45:34;21.90;98.90
736;DHT22;352;48.626;9.238;2022-10-10T11:48:12;22.00;98.80
736;DHT22;352;48.626;9.238;2022-10-10T11:50:42;22.40;99.90
736;DHT22;352;48.626;9.238;2022-10-10T11:53:19;22.20;98.30
736;DHT22;352;48.626;9.238;2022-10-10T11:55:51;22.30;98.00
736;DHT22;352;48.626;9.238;2022-10-10T11:58:31;22.20;96.80
736;DHT22;352;48.626;9.238;2022-10-10T12:01:03;22.20;97.30
736;DHT22;352;48.626;9.238;2022-10-10T12:03:31;22.20;96.40
736;DHT22;352;48.626;9.238;2022-10-10T12:06:02;22.20;95.90
736;DHT22;352;48.626;9.238;2022-10-10T12:08:35;22.20;95.60
736;DHT22;352;48.626;9.238;2022-10-10T12:11:08;22.20;95.80
736;DHT22;352;48.626;9.238;2022-10-10T12:13:39;22.10;95.90
736;DHT22;352;48.626;9.238;2022-10-10T12:16:09;22.10;96.40
736;DHT22;352;48.626;9.238;2022-10-10T12:18:42;22.20;96.00
736;DHT22;352;48.626;9.238;2022-10-10T12:21:12;22.20;95.60
736;DHT22;352;48.626;9.238;2022-10-10T12:23:41;22.20;95.50
736;DHT22;352;48.626;9.238;2022-10-10T12:26:15;22.20;95.80
736;DHT22;352;48.626;9.238;2022-10-10T12:29:01;22.30;95.00
736;DHT22;352;48.626;9.238;2022-10-10T12:31:33;22.30;94.00
736;DHT22;352;48.626;9.238;2022-10-10T12:34:09;22.40;95.90
736;DHT22;352;48.626;9.238;2022-10-10T12:36:54;22.40;94.30
736;DHT22;352;48.626;9.238;2022-10-10T12:39:34;22.50;94.70
736;DHT22;352;48.626;9.238;2022-10-10T12:42:01;22.50;94.20
736;DHT22;352;48.626;9.238;2022-10-10T12:44:41;22.50;94.40
736;DHT22;352;48.626;9.238;2022-10-10T12:47:31;22.50;94.60
736;DHT22;352;48.626;9.238;2022-10-10T12:50:00;22.40;94.30
736;DHT22;352;48.626;9.238;2022-10-10T12:52:29;22.40;94.50
736;DHT22;352;48.626;9.238;2022-10-10T12:55:06;22.50;94.00
736;DHT22;352;48.626;9.238;2022-10-10T12:57:36;22.40;94.10
736;DHT22;352;48.626;9.238;2022-10-10T13:00:14;22.40;94.60
736;DHT22;352;48.626;9.238;2022-10-10T13:02:43;22.40;95.80
736;DHT22;352;48.626;9.238;2022-10-10T13:05:12;22.50;95.30
736;DHT22;352;48.626;9.238;2022-10-10T13:07:42;22.50;95.10
736;DHT22;352;48.626;9.238;2022-10-10T13:10:20;22.50;95.20
736;DHT22;352;48.626;9.238;2022-10-10T13:12:57;22.60;94.30
736;DHT22;352;48.626;9.238;2022-10-10T13:15:24;22.50;94.40
736;DHT22;352;48.626;9.238;2022-10-10T13:17:51;22.40;95.10
736;DHT22;352;48.626;9.238;2022-10-10T13:20:33;22.40;95.10
736;DHT22;352;48.626;9.238;2022-10-10T13:23:03;22.40;94.50
736;DHT22;352;48.626;9.238;2022-10-10T13:25:33;22.50;94.90
736;DHT22;352;48.626;9.238;2022-10-10T13:28:00;22.50;94.10
736;DHT22;352;48.626;9.238;2022-10-10T13:30:27;22.50;95.20
736;DHT22;352;48.626;9.238;2022-10-10T13:32:54;22.40;95.50
736;DHT22;352;48.626;9.238;2022-10-10T13:35:24;22.50;96.50
736;DHT22;352;48.626;9.238;2022-10-10T13:37:53;22.40;95.00
736;DHT22;352;48.626;9.238;2022-10-10T13:40:21;22.30;95.50
736;DHT22;352;48.626;9.238;2022-10-10T13:42:50;22.20;95.30
736;DHT22;352;48.626;9.238;2022-10-10T13:45:36;22.10;95.50
736;DHT22;352;48.626;9.238;2022-10-10T13:48:18;22.00;94.90
736;DHT22;352;48.626;9.238;2022-10-10T13:50:59;22.00;96.00
736;DHT22;352;48.626;9.238;2022-10-10T13:53:35;22.10;97.70
736;DHT22;352;48.626;9.238;2022-10-10T13:56:11;22.20;98.10
736;DHT22;352;48.626;9.238;2022-10-10T13:58:42;22.20;96.50
736;DHT22;352;48.626;9.238;2022-10-10T14:01:21;22.20;97.20
736;DHT22;352;48.626;9.238;2022-10-10T14:03:54;22.20;96.90
736;DHT22;352;48.626;9.238;2022-10-10T14:06:24;22.30;96.40
736;DHT22;352;48.626;9.238;2022-10-10T14:08:54;22.30;97.00
736;DHT22;352;48.626;9.238;2022-10-10T14:11:23;22.40;96.70
736;DHT22;352;48.626;9.238;2022-10-10T14:13:57;22.50;96.70
736;DHT22;352;48.626;9.238;2022-10-10T14:16:25;22.50;96.30
736;DHT22;352;48.626;9.238;2022-10-10T14:18:52;22.50;95.60
736;DHT22;352;48.626;9.238;2022-10-10T14:21:19;22.50;95.20
736;DHT22;352;48.626;9.238;2022-10-10T14:23:46;22.50;93.40
736;DHT22;352;48.626;9.238;2022-10-10T14:26:15;22.50;94.70
736;DHT22;352;48.626;9.238;2022-10-10T14:28:42;22.60;95.10
736;DHT22;352;48.626;9.238;2022-10-10T14:31:11;22.60;95.00
736;DHT22;352;48.626;9.238;2022-10-10T14:33:38;22.60;95.30
736;DHT22;352;48.626;9.238;2022-10-10T14:36:06;22.50;94.40
736;DHT22;352;48.626;9.238;2022-10-10T14:38:32;22.50;94.50
736;DHT22;352;48.626;9.238;2022-10-10T14:40:59;22.40;94.30
736;DHT22;352;48.626;9.238;2022-10-10T14:43:26;22.30;94.30
736;DHT22;352;48.626;9.238;2022-10-10T14:45:53;22.30;93.60
736;DHT22;352;48.626;9.238;2022-10-10T14:48:22;22.20;93.30
736;DHT22;352;48.626;9.238;2022-10-10T14:50:49;22.20;93.10
736;DHT22;352;48.626;9.238;2022-10-10T14:53:16;22.10;93.30
736;DHT22;352;48.626;9.238;2022-10-10T14:55:43;22.10;93.90
736;DHT22;352;48.626;9.238;2022-10-10T14:58:15;22.00;92.80
736;DHT22;352;48.626;9.238;2022-10-10T15:00:43;22.00;93.20
736;DHT22;352;48.626;9.238;2022-10-10T15:03:10;22.00;94.10
736;DHT22;352;48.626;9.238;2022-10-10T15:05:38;21.90;94.90
736;DHT22;352;48.626;9.238;2022-10-10T15:08:06;21.90;95.70
736;DHT22;352;48.626;9.238;2022-10-10T15:10:33;21.90;96.30
736;DHT22;352;48.626;9.238;2022-10-10T15:13:00;21.90;96.10
736;DHT22;352;48.626;9.238;2022-10-10T15:15:27;21.80;96.80
736;DHT22;352;48.626;9.238;2022-10-10T15:17:56;21.70;97.40
736;DHT22;352;48.626;9.238;2022-10-10T15:20:23;21.60;97.30
736;DHT22;352;48.626;9.238;2022-10-10T15:22:56;21.60;97.40
736;DHT22;352;48.626;9.238;2022-10-10T15:25:23;21.50;97.50
736;DHT22;352;48.626;9.238;2022-10-10T15:27:50;21.40;97.90
736;DHT22;352;48.626;9.238;2022-10-10T15:30:18;21.30;98.30
736;DHT22;352;48.626;9.238;2022-10-10T15:32:45;21.30;98.80
736;DHT22;352;48.626;9.238;2022-10-10T15:35:13;21.30;98.70
736;DHT22;352;48.626;9.238;2022-10-10T15:37:43;21.20;98.90
736;DHT22;352;48.626;9.238;2022-10-10T15:40:13;21.20;98.80
736;DHT22;352;48.626;9.238;2022-10-10T15:42:40;21.10;98.70
736;DHT22;352;48.626;9.238;2022-10-10T15:45:09;21.00;99.30
736;DHT22;352;48.626;9.238;2022-10-10T15:47:37;21.00;99.70
736;DHT22;352;48.626;9.238;2022-10-10T15:50:06;21.00;99.90
736;DHT22;352;48.626;9.238;2022-10-10T15:52:34;20.90;99.50
736;DHT22;352;48.626;9.238;2022-10-10T15:55:01;20.90;99.70
736;DHT22;352;48.626;9.238;2022-10-10T15:57:29;20.90;99.20
736;DHT22;352;48.626;9.238;2022-10-10T15:59:56;20.90;99.40
736;DHT22;352;48.626;9.238;2022-10-10T16:02:22;20.90;99.60
736;DHT22;352;48.626;9.238;2022-10-10T16:04:49;20.80;99.40
736;DHT22;352;48.626;9.238;2022-10-10T16:07:16;20.80;99.60
736;DHT22;352;48.626;9.238;2022-10-10T16:09:43;20.70;99.70
736;DHT22;352;48.626;9.238;2022-10-10T16:12:10;20.60;99.80
736;DHT22;352;48.626;9.238;2022-10-10T16:14:38;20.60;99.90
736;DHT22;352;48.626;9.238;2022-10-10T16:17:06;20.50;99.90
736;DHT22;352;48.626;9.238;2022-10-10T16:19:33;20.50;99.90
736;DHT22;352;48.626;9.238;2022-10-10T16:22:00;20.40;99.90
736;DHT22;352;48.626;9.238;2022-10-10T16:24:27;20.30;99.90
736;DHT22;352;48.626;9.238;2022-10-10T16:26:55;20.20;99.90
736;DHT22;352;48.626;9.238;2022-10-10T16:29:23;20.10;99.90
736;DHT22;352;48.626;9.238;2022-10-10T16:31:52;20.00;99.90
736;DHT22;352;48.626;9.238;2022-10-10T16:34:19;20.00;99.90
736;DHT22;352;48.626;9.238;2022-10-10T16:36:45;19.80;99.90
736;DHT22;352;48.626;9.238;2022-10-10T16:39:12;19.80;99.90
736;DHT22;352;48.626;9.238;2022-10-10T16:41:39;19.60;99.90
736;DHT22;352;48.626;9.238;2022-10-10T16:44:06;19.60;99.90
736;DHT22;352;48.626;9.238;2022-10-10T16:46:34;19.50;99.90
736;DHT22;352;48.626;9.238;2022-10-10T16:49:02;19.40;99.90
736;DHT22;352;48.626;9.238;2022-10-10T16:51:29;19.40;99.90
736;DHT22;352;48.626;9.238;2022-10-10T16:54:00;19.30;99.90
736;DHT22;352;48.626;9.238;2022-10-10T16:56:29;19.20;99.90
736;DHT22;352;48.626;9.238;2022-10-10T16:58:57;19.20;99.90